Time;durP1;ratioP1;P1;durP2;ratioP2;P2;SDS_P1;SDS_P2;PMS_P1;PMS_P2;Temp;Humidity;BMP_temperature;BMP_pressure;BME280_temperature;BME280_humidity;BME280_pressure;Samples;Min_cycle;Max_cycle;Signal;HPM_P1;HPM_P2
2022/12/14 00:01:25;;;;;;;105.83;46.00;;;;;;;-4.81;69.40;94112.13;1797292;79;22045;-49
2022/12/14 00:03:52;;;;;;;96.17;44.23;;;;;;;-4.84;69.13;94123.00;1795326;78;21187;-49
2022/12/14 00:06:22;;;;;;;85.95;41.95;;;;;;;-4.96;69.02;94125.91;1803711;78;20994;-49
2022/12/14 00:08:50;;;;;;;191.80;84.77;;;;;;;-5.11;68.91;94123.43;1729956;82;21080;-49
2022/12/14 00:11:24;;;;;;;176.25;81.08;;;;;;;-5.36;69.08;94126.91;1730872;82;21022;-49
2022/12/14 00:13:58;;;;;;;189.05;77.45;;;;;;;-5.50;69.54;94124.81;1732234;82;22013;-48
2022/12/14 00:16:27;;;;;;;182.60;81.22;;;;;;;-5.58;70.12;94125.83;1689352;83;21041;-49
2022/12/14 00:18:56;;;;;;;219.87;91.32;;;;;;;-5.45;70.56;94133.12;1688196;83;21164;-50
2022/12/14 00:21:23;;;;;;;239.00;100.07;;;;;;;-5.45;70.10;94125.84;1712648;83;21531;-49
2022/12/14 00:23:50;;;;;;;196.95;85.87;;;;;;;-5.43;70.50;94121.47;1693950;83;21168;-49
2022/12/14 00:26:21;;;;;;;158.63;77.42;;;;;;;-5.28;70.49;94129.91;1689197;84;21838;-49
2022/12/14 00:28:49;;;;;;;139.10;67.50;;;;;;;-5.17;70.03;94128.33;1695113;82;21661;-50
2022/12/14 00:31:16;;;;;;;157.95;74.37;;;;;;;-5.08;69.88;94131.53;1714725;82;21034;-48
2022/12/14 00:33:43;;;;;;;171.13;80.55;;;;;;;-4.98;69.75;94132.80;1703232;82;21020;-49
2022/12/14 00:36:10;;;;;;;157.57;74.37;;;;;;;-4.90;69.44;94139.22;1716888;83;21050;-49
2022/12/14 00:38:37;;;;;;;169.17;80.62;;;;;;;-4.87;68.94;94133.68;1703419;83;21241;-49
2022/12/14 00:41:05;;;;;;;149.12;71.30;;;;;;;-4.99;68.58;94140.05;1686869;84;21069;-48
2022/12/14 00:43:32;;;;;;;146.20;66.35;;;;;;;-5.05;68.76;94134.03;1685192;82;21049;-49
2022/12/14 00:45:58;;;;;;;136.32;70.00;;;;;;;-5.09;68.60;94123.28;1688072;83;21103;-49
2022/12/14 00:48:25;;;;;;;136.12;67.00;;;;;;;-5.10;68.60;94121.73;1687356;82;20989;-48
2022/12/14 00:50:53;;;;;;;129.12;62.88;;;;;;;-5.15;68.43;94126.64;1682324;82;21143;-48
2022/12/14 00:53:21;;;;;;;143.97;71.75;;;;;;;-5.23;68.58;94137.83;1682482;83;20986;-49
2022/12/14 00:55:48;;;;;;;159.00;73.15;;;;;;;-5.39;68.69;94148.49;1678478;82;21580;-49
2022/12/14 00:58:18;;;;;;;178.60;79.62;;;;;;;-5.58;69.22;94144.58;1719696;82;21066;-50
2022/12/14 01:00:45;;;;;;;160.18;74.15;;;;;;;-5.66;69.66;94146.17;1690291;82;21120;-51
2022/12/14 01:03:12;;;;;;;233.32;100.92;;;;;;;-5.54;70.70;94141.41;1695759;82;21265;-49
2022/12/14 01:05:39;;;;;;;233.45;102.42;;;;;;;-5.35;70.34;94144.53;1725207;81;21033;-49
2022/12/14 01:08:06;;;;;;;200.22;92.25;;;;;;;-5.17;70.01;94147.67;1698393;81;21057;-49
2022/12/14 01:10:33;;;;;;;203.73;91.35;;;;;;;-5.07;69.45;94145.69;1716941;81;21129;-49
2022/12/14 01:13:01;;;;;;;173.43;80.80;;;;;;;-4.99;69.08;94143.32;1774706;78;21016;-47
2022/12/14 01:15:27;;;;;;;182.85;86.30;;;;;;;-4.92;68.73;94147.42;1797181;78;21780;-48
2022/12/14 01:17:54;;;;;;;188.82;84.58;;;;;;;-4.84;68.57;94150.38;1792950;78;20971;-48
2022/12/14 01:20:21;;;;;;;180.87;85.12;;;;;;;-4.78;68.15;94152.38;1808930;78;20978;-48
2022/12/14 01:22:53;;;;;;;160.75;76.70;;;;;;;-4.73;68.09;94156.66;1786618;78;21600;-49
2022/12/14 01:25:20;;;;;;;164.90;77.22;;;;;;;-4.75;67.66;94141.50;1798586;79;20951;-50
2022/12/14 01:27:46;;;;;;;141.75;68.15;;;;;;;-4.79;67.59;94147.39;1780455;79;21255;-49
2022/12/14 01:30:17;;;;;;;133.97;67.22;;;;;;;-4.93;67.42;94155.26;1809455;78;20923;-49
2022/12/14 01:32:44;;;;;;;148.30;67.35;;;;;;;-5.04;67.31;94151.11;1793990;78;21455;-49
2022/12/14 01:35:11;;;;;;;136.43;68.30;;;;;;;-5.15;67.37;94152.11;1795234;80;20991;-49
2022/12/14 01:37:38;;;;;;;145.10;69.87;;;;;;;-5.23;67.68;94159.83;1796996;78;21020;-50
2022/12/14 01:40:07;;;;;;;196.40;89.28;;;;;;;-5.24;68.10;94158.28;1818937;79;21775;-49
2022/12/14 01:42:36;;;;;;;193.65;87.17;;;;;;;-5.15;68.23;94152.11;1810797;78;21020;-50
2022/12/14 01:45:04;;;;;;;307.95;129.07;;;;;;;-5.13;67.72;94148.48;1725696;82;21177;-49
2022/12/14 01:47:41;;;;;;;330.83;131.72;;;;;;;-5.12;68.26;94154.05;1724388;81;20994;-49
2022/12/14 01:50:16;;;;;;;296.35;115.72;;;;;;;-5.00;68.09;94144.45;1728667;81;21161;-49
2022/12/14 01:52:45;;;;;;;266.20;106.63;;;;;;;-4.90;67.79;94151.29;1729401;82;21266;-50
2022/12/14 01:55:29;;;;;;;164.40;77.00;;;;;;;-4.79;67.49;94144.72;1729675;82;21018;-50
2022/12/14 01:58:13;;;;;;;159.80;72.62;;;;;;;-4.78;67.13;94144.92;1658362;85;21239;-50
2022/12/14 02:00:43;;;;;;;182.10;80.83;;;;;;;-4.81;67.13;94142.97;1618062;87;21014;-49
2022/12/14 02:03:15;;;;;;;162.45;68.65;;;;;;;-4.78;66.91;94158.33;1613271;86;21608;-50
2022/12/14 02:05:45;;;;;;;;;;;;;;;-4.81;66.89;94154.45;1627380;86;22035;-49
2022/12/14 06:15:21;;;;;;;115.70;51.25;;;;;;;-7.53;74.50;94175.72;1826412;77;26226;-43
2022/12/14 06:19:42;;;;;;;101.05;51.73;;;;;;;-7.29;74.69;94188.83;1833496;77;26104;-50
2022/12/14 06:22:10;;;;;;;175.07;77.65;;;;;;;-7.19;74.51;94215.02;1789288;78;21068;-50
2022/12/14 06:24:37;;;;;;;434.33;202.13;;;;;;;-7.11;74.51;94230.06;1805350;78;21132;-50
2022/12/14 06:27:04;;;;;;;266.90;110.15;;;;;;;-7.00;74.74;94239.09;1786607;78;20998;-50
2022/12/14 06:29:31;;;;;;;168.60;75.25;;;;;;;-6.86;74.45;94229.47;1801187;78;20971;-49
2022/12/14 06:31:57;;;;;;;159.32;74.32;;;;;;;-6.82;74.35;94228.42;1778450;79;20994;-47
2022/12/14 06:34:25;;;;;;;152.38;68.17;;;;;;;-6.73;74.12;94216.19;1775551;78;21037;-48
2022/12/14 06:36:52;;;;;;;141.10;69.27;;;;;;;-6.73;74.06;94203.58;1772707;78;21345;-47
2022/12/14 06:39:18;;;;;;;136.15;66.30;;;;;;;-6.66;74.01;94225.09;1802543;78;20959;-48
2022/12/14 06:41:50;;;;;;;146.50;69.55;;;;;;;-6.61;73.78;94211.47;1781835;79;21017;-48
2022/12/14 06:44:17;;;;;;;140.73;67.60;;;;;;;-6.56;73.73;94220.54;1776796;80;21510;-52
2022/12/14 06:46:45;;;;;;;155.95;76.72;;;;;;;-6.47;73.71;94231.81;1766537;80;21632;-47
2022/12/14 06:49:15;;;;;;;143.45;71.77;;;;;;;-6.42;73.53;94226.17;1785322;78;21031;-51
2022/12/14 06:51:44;;;;;;;149.20;73.05;;;;;;;-6.32;73.97;94239.53;1803112;79;21428;-49
2022/12/14 06:54:12;;;;;;;145.90;75.03;;;;;;;-6.14;73.88;94233.38;1779887;79;21109;-49
2022/12/14 06:56:42;;;;;;;161.22;74.87;;;;;;;-6.03;73.49;94220.97;1779157;78;21221;-52
2022/12/14 06:59:09;;;;;;;172.65;79.87;;;;;;;-5.97;73.12;94226.22;1753111;80;21052;-52
2022/12/14 07:01:36;;;;;;;203.05;91.97;;;;;;;-5.94;72.85;94220.16;1768699;80;21153;-48
2022/12/14 07:04:04;;;;;;;228.45;106.83;;;;;;;-5.90;73.14;94212.98;1776199;79;21558;-49
2022/12/14 07:06:34;;;;;;;184.78;84.87;;;;;;;-5.72;73.23;94212.68;1767827;80;20990;-48
2022/12/14 07:09:01;;;;;;;191.80;89.83;;;;;;;-5.52;72.64;94213.36;1777000;78;21053;-45
2022/12/14 07:11:29;;;;;;;334.90;137.32;;;;;;;-5.50;71.92;94205.19;1801146;78;21176;-46
2022/12/14 07:13:56;;;;;;;268.45;118.25;;;;;;;-5.57;71.66;94207.73;1768450;78;21560;-45
2022/12/14 07:16:26;;;;;;;235.68;102.12;;;;;;;-5.56;71.78;94211.98;1768813;78;21406;-51
2022/12/14 07:18:57;;;;;;;149.80;72.97;;;;;;;-5.43;71.95;94217.34;1787832;78;21084;-50
2022/12/14 07:21:24;;;;;;;121.10;59.08;;;;;;;-5.29;71.30;94216.22;1781667;78;21097;-51
2022/12/14 07:23:52;;;;;;;127.82;56.60;;;;;;;-5.26;71.01;94210.14;1782487;78;21017;-52
2022/12/14 07:26:26;;;;;;;86.45;43.60;;;;;;;-5.26;70.54;94218.17;1778310;78;21243;-52
2022/12/14 07:28:54;;;;;;;117.87;55.33;;;;;;;-5.26;70.13;94212.81;1777315;79;21056;-57
2022/12/14 07:31:24;;;;;;;116.33;56.80;;;;;;;-5.31;70.21;94197.05;1785938;79;21103;-57
2022/12/14 07:36:31;;;;;;;165.28;75.15;;;;;;;-5.19;70.72;94205.66;1750449;80;21631;-52
2022/12/14 07:38:59;;;;;;;139.43;69.35;;;;;;;-4.92;71.01;94207.75;1712669;81;21226;-50
2022/12/14 07:42:07;;;;;;;141.55;72.30;;;;;;;-4.66;70.32;94203.67;1734571;80;21484;-49
2022/12/14 07:44:50;;;;;;;154.00;71.92;;;;;;;-4.62;69.47;94204.52;1736615;80;21118;-47
2022/12/14 07:47:21;;;;;;;219.53;90.47;;;;;;;-4.54;69.47;94194.06;1727046;81;21210;-49
2022/12/14 07:50:07;;;;;;;;;;;;;;;;;;;;;
2022/12/14 07:52:27;;;;;;;101.53;52.67;;;;;;;-4.33;69.15;94194.30;1617996;86;21696;-49
2022/12/14 07:54:54;;;;;;;143.10;65.72;;;;;;;-4.28;68.11;94189.38;1606912;86;21044;-50
2022/12/14 07:57:21;;;;;;;251.02;108.97;;;;;;;-4.23;68.17;94199.02;1609912;87;21112;-51
2022/12/14 07:59:50;;;;;;;224.35;102.97;;;;;;;-4.08;68.49;94194.77;1625414;87;21112;-52
2022/12/14 08:02:28;;;;;;;198.35;95.17;;;;;;;-3.98;68.17;94209.45;1621749;87;21225;-52
2022/12/14 08:04:59;;;;;;;172.82;86.55;;;;;;;-3.89;68.57;94209.93;1628687;86;21925;-48
2022/12/14 08:07:30;;;;;;;198.13;101.80;;;;;;;-3.66;68.00;94207.25;1582943;89;21137;-53
2022/12/14 08:09:57;;;;;;;204.30;98.20;;;;;;;-3.58;67.03;94200.03;1575538;89;21201;-52
2022/12/14 08:12:40;;;;;;;103.97;49.20;;;;;;;-3.52;66.88;94202.80;1566370;89;21092;-52
2022/12/14 08:15:11;;;;;;;100.53;39.98;;;;;;;-3.40;66.02;94194.42;1520545;90;21238;-50
2022/12/14 08:17:38;;;;;;;112.15;57.60;;;;;;;-3.48;65.31;94192.05;1542141;92;21184;-56
2022/12/14 08:20:07;;;;;;;72.40;37.10;;;;;;;-3.55;65.24;94182.59;1519867;93;21180;-53
2022/12/14 08:22:38;;;;;;;70.72;40.00;;;;;;;-3.58;65.34;94171.25;1524409;92;21096;-56
2022/12/14 08:25:09;;;;;;;124.15;57.25;;;;;;;-3.49;65.68;94170.34;1526583;92;21729;-50
2022/12/14 08:27:36;;;;;;;118.55;57.00;;;;;;;-3.31;65.50;94173.94;1539919;92;21159;-53
2022/12/14 08:30:05;;;;;;;77.37;40.48;;;;;;;-3.21;65.78;94165.94;1565084;89;21291;-49
2022/12/14 08:32:32;;;;;;;143.28;60.12;;;;;;;-2.99;65.49;94150.72;1596724;88;21326;-48
2022/12/14 08:35:05;;;;;;;119.35;57.33;;;;;;;-2.83;64.34;94161.95;1556648;89;21146;-49
2022/12/14 08:37:32;;;;;;;143.02;66.80;;;;;;;-2.72;64.49;94155.47;1548849;91;21336;-50
2022/12/14 08:40:10;;;;;;;139.75;71.70;;;;;;;-2.67;64.64;94151.65;1565204;88;21134;-48
2022/12/14 08:42:38;;;;;;;99.07;48.92;;;;;;;-2.53;64.69;94160.55;1572126;88;21906;-49
2022/12/14 08:45:13;;;;;;;88.45;46.25;;;;;;;-2.39;63.95;94153.88;1615515;85;21160;-50
2022/12/14 08:48:01;;;;;;;87.02;45.65;;;;;;;-2.42;62.72;94139.83;1599262;86;21727;-49
2022/12/14 08:50:30;;;;;;;65.42;39.73;;;;;;;-2.49;62.68;94135.00;1600205;88;21203;-55
2022/12/14 08:52:58;;;;;;;73.28;43.75;;;;;;;-2.39;62.65;94123.47;1586458;89;21617;-50
2022/12/14 08:55:25;;;;;;;81.42;43.48;;;;;;;-2.32;62.38;94130.24;1576640;88;21247;-49
2022/12/14 08:57:52;;;;;;;61.40;37.15;;;;;;;-2.29;62.02;94137.55;1588814;88;21183;-47
2022/12/14 09:00:20;;;;;;;52.30;34.45;;;;;;;-2.35;61.99;94139.84;1610956;88;21296;-49
2022/12/14 09:02:50;;;;;;;76.90;41.53;;;;;;;-2.40;61.97;94142.91;1572910;88;21167;-49
2022/12/14 09:05:17;;;;;;;95.12;41.80;;;;;;;-2.41;62.45;94145.41;1589506;88;21453;-48
2022/12/14 09:07:44;;;;;;;87.78;45.95;;;;;;;-2.35;62.35;94133.11;1587724;87;21460;-49
2022/12/14 09:10:12;;;;;;;104.20;51.85;;;;;;;-2.19;62.86;94128.72;1591489;88;21069;-50
2022/12/14 09:12:39;;;;;;;88.37;43.78;;;;;;;-1.96;63.12;94127.23;1591925;88;22434;-51
2022/12/14 09:15:08;;;;;;;114.45;64.32;;;;;;;-1.78;62.05;94129.36;1623598;84;21151;-49
2022/12/14 09:17:34;;;;;;;87.88;47.73;;;;;;;-1.74;62.09;94124.73;1618021;86;21047;-49
2022/12/14 09:20:02;;;;;;;100.60;57.93;;;;;;;-1.56;62.19;94121.47;1619464;87;21114;-49
2022/12/14 09:22:29;;;;;;;95.50;53.55;;;;;;;-1.19;62.23;94113.16;1622292;85;21181;-49
2022/12/14 09:24:56;;;;;;;86.15;44.27;;;;;;;-0.91;61.45;94094.79;1601361;87;21541;-47
2022/12/14 09:27:24;;;;;;;78.92;41.68;;;;;;;-0.79;60.60;94095.13;1619329;86;21879;-49
2022/12/14 09:29:52;;;;;;;67.17;37.03;;;;;;;-0.80;59.91;94096.29;1639433;84;21159;-51
2022/12/14 09:32:23;;;;;;;57.98;31.07;;;;;;;-0.82;59.33;94085.12;1634262;86;21096;-49
2022/12/14 09:34:51;;;;;;;45.83;27.50;;;;;;;-0.97;58.81;94075.52;1639093;86;21068;-50
2022/12/14 09:37:25;;;;;;;50.08;29.67;;;;;;;-0.93;58.70;94074.17;1601309;88;21497;-48
2022/12/14 09:39:56;;;;;;;66.28;37.20;;;;;;;-0.86;58.62;94072.78;1543038;92;21261;-50
2022/12/14 09:42:41;;;;;;;62.25;33.30;;;;;;;-0.67;58.31;94070.97;1505360;93;21146;-50
2022/12/14 09:45:35;;;;;;;60.38;34.63;;;;;;;-0.59;58.03;94071.91;1489346;94;21223;-51
2022/12/14 09:48:17;;;;;;;67.60;37.17;;;;;;;-0.55;57.63;94059.14;1459336;95;21216;-51
2022/12/14 09:50:47;;;;;;;54.13;30.60;;;;;;;-0.55;57.63;94040.84;1483478;94;21204;-51
2022/12/14 09:53:15;;;;;;;66.97;32.53;;;;;;;-0.50;58.03;94041.20;1539355;92;21182;-53
2022/12/14 09:55:47;;;;;;;67.72;30.37;;;;;;;-0.34;57.71;94028.56;1552644;90;21515;-51
2022/12/14 09:58:24;;;;;;;66.77;30.95;;;;;;;-0.14;57.07;94031.72;1501664;92;21204;-52
2022/12/14 10:01:21;;;;;;;59.95;32.38;;;;;;;-0.08;56.13;94030.12;1504614;92;21170;-49
2022/12/14 10:04:16;;;;;;;52.83;28.17;;;;;;;-0.18;56.06;94029.62;1493548;93;21156;-51
2022/12/14 10:07:04;;;;;;;61.18;30.02;;;;;;;-0.18;55.81;94034.25;1491878;94;21312;-54
2022/12/14 10:10:15;;;;;;;67.12;31.65;;;;;;;-0.26;55.12;94032.77;1444190;97;21243;-56
2022/12/14 10:13:08;;;;;;;86.82;35.15;;;;;;;-0.40;55.44;94029.55;1453850;96;21313;-50
2022/12/14 10:16:31;;;;;;;54.50;25.45;;;;;;;-0.52;55.47;94017.09;1439026;96;21153;-49
2022/12/14 10:19:13;;;;;;;43.35;22.27;;;;;;;-0.61;55.18;94022.92;1417154;98;21187;-48
2022/12/14 10:21:54;;;;;;;36.45;20.37;;;;;;;-0.59;55.04;94013.09;1390103;100;21704;-60
2022/12/14 10:24:32;;;;;;;54.55;21.93;;;;;;;-0.43;54.73;94010.69;1373711;102;22049;-57
2022/12/14 10:26:59;;;;;;;36.10;18.62;;;;;;;-0.12;54.70;94002.36;1361277;102;21352;-62
2022/12/14 10:29:40;;;;;;;30.08;17.77;;;;;;;0.40;53.78;93995.14;1350836;103;21242;-61
2022/12/14 10:32:38;;;;;;;29.67;17.57;;;;;;;0.92;52.48;93987.66;1357390;104;21288;-60
2022/12/14 10:35:43;;;;;;;41.02;17.50;;;;;;;1.46;51.15;93997.41;1321015;107;21153;-59
2022/12/14 10:38:50;;;;;;;30.23;18.07;;;;;;;1.74;49.67;93993.14;1276499;110;22153;-60
2022/12/14 10:41:45;;;;;;;35.90;16.32;;;;;;;1.99;49.45;93988.72;1240708;112;21312;-60
2022/12/14 10:48:38;;;;;;;26.33;13.80;;;;;;;2.62;47.69;93979.50;1248117;112;21358;-57
2022/12/14 10:51:23;;;;;;;32.60;16.17;;;;;;;3.01;46.88;93960.53;1238417;114;21302;-56
2022/12/14 10:54:29;;;;;;;23.40;13.45;;;;;;;3.09;46.15;93968.12;1268194;111;21237;-60
2022/12/14 10:57:08;;;;;;;26.65;13.22;;;;;;;3.05;45.37;93974.84;1276362;110;21226;-54
2022/12/14 11:00:11;;;;;;;20.45;11.80;;;;;;;2.61;45.37;93971.97;1261432;111;21280;-55
2022/12/14 11:02:47;;;;;;;71.37;60.28;;;;;;;2.29;45.65;93962.25;1335989;105;21203;-55
2022/12/14 11:05:32;;;;;;;65.08;43.13;;;;;;;1.78;46.67;93955.90;1335286;105;21296;-56
2022/12/14 11:07:59;;;;;;;33.40;23.15;;;;;;;1.52;47.73;93955.91;1336415;105;21186;-55
2022/12/14 11:10:28;;;;;;;33.50;19.55;;;;;;;1.47;47.61;93950.95;1337598;106;21228;-59
2022/12/14 11:13:16;;;;;;;34.83;20.80;;;;;;;1.29;47.82;93949.07;1344021;104;21201;-59
2022/12/14 11:16:07;;;;;;;42.25;20.85;;;;;;;1.12;48.43;93941.94;1397229;97;21184;-57
2022/12/14 11:18:45;;;;;;;76.53;27.73;;;;;;;0.97;49.41;93936.52;1460070;95;21599;-59
2022/12/14 11:21:19;;;;;;;41.10;26.30;;;;;;;0.92;49.63;93930.81;1463293;96;21145;-59
2022/12/14 11:23:48;;;;;;;52.33;27.13;;;;;;;0.82;49.94;93931.12;1421450;98;21294;-59
2022/12/14 11:26:33;;;;;;;58.15;31.95;;;;;;;0.68;50.47;93928.58;1426521;100;21111;-55
2022/12/14 11:29:02;;;;;;;56.10;28.55;;;;;;;0.66;50.66;93931.49;1447239;97;21161;-61
2022/12/14 11:31:41;;;;;;;58.00;29.77;;;;;;;0.61;51.01;93945.47;1448082;96;21146;-61
2022/12/14 11:34:37;;;;;;;82.82;29.42;;;;;;;0.47;51.17;93950.45;1442329;97;21307;-59
2022/12/14 11:37:30;;;;;;;53.30;27.98;;;;;;;0.44;51.58;93947.78;1432674;97;21226;-60
2022/12/14 11:40:00;;;;;;;57.55;27.30;;;;;;;0.46;51.35;93940.02;1468998;94;21158;-62
2022/12/14 11:42:28;;;;;;;55.67;25.72;;;;;;;0.43;51.65;93946.99;1460074;95;21185;-58
2022/12/14 11:45:24;;;;;;;44.73;24.80;;;;;;;0.40;51.41;93939.69;1456564;96;21293;-57
2022/12/14 11:48:18;;;;;;;39.88;21.55;;;;;;;0.41;51.24;93942.58;1440865;97;21156;-58
2022/12/14 11:50:52;;;;;;;45.17;24.27;;;;;;;0.39;51.33;93939.51;1428048;98;21250;-58
2022/12/14 11:54:00;;;;;;;49.25;27.73;;;;;;;0.39;51.58;93936.05;1397153;100;21194;-61
2022/12/14 11:56:37;;;;;;;56.25;26.85;;;;;;;0.38;51.69;93935.27;1394558;101;21212;-62
2022/12/14 11:59:14;;;;;;;54.38;27.87;;;;;;;0.31;52.20;93920.48;1450857;96;21158;-59
2022/12/14 12:01:41;;;;;;;66.55;29.57;;;;;;;0.30;52.27;93923.58;1480537;95;21238;-64
2022/12/14 12:04:14;;;;;;;54.83;26.97;;;;;;;0.33;52.43;93922.19;1468055;96;21866;-58
2022/12/14 12:06:41;;;;;;;44.33;26.05;;;;;;;0.37;52.62;93912.09;1467239;95;21727;-58
2022/12/14 12:10:19;;;;;;;;;;;;;;;;;;;;;
2022/12/14 12:13:26;;;;;;;50.23;26.05;;;;;;;0.70;52.04;93910.56;1419060;98;21771;-61
2022/12/14 12:16:36;;;;;;;56.30;29.02;;;;;;;0.63;52.02;93915.47;1368551;101;21166;-55
2022/12/14 12:19:13;;;;;;;50.58;26.35;;;;;;;0.56;51.93;93920.22;1332452;106;21211;-58
2022/12/14 12:21:43;;;;;;;51.55;26.65;;;;;;;0.49;52.00;93914.86;1329759;106;21227;-58
2022/12/14 12:24:33;;;;;;;46.45;26.05;;;;;;;0.48;51.91;93924.94;1306121;108;21290;-56
2022/12/14 12:30:31;;;;;;;59.13;29.72;;;;;;;0.45;52.32;93930.38;1269292;111;21199;-61
2022/12/14 12:33:06;;;;;;;56.92;30.70;;;;;;;0.39;52.57;93926.59;1286168;108;21533;-62
2022/12/14 12:35:55;;;;;;;52.67;26.70;;;;;;;0.47;52.42;93923.41;1306638;108;21195;-61
2022/12/14 12:38:47;;;;;;;60.60;40.88;;;;;;;0.54;52.16;93918.47;1294476;110;21340;-64
2022/12/14 12:41:44;;;;;;;50.23;30.37;;;;;;;0.61;52.27;93911.65;1298160;108;21801;-62
2022/12/14 12:45:42;;;;;;;81.53;40.63;;;;;;;0.91;51.75;93913.78;1272273;111;21731;-61
2022/12/14 12:48:46;;;;;;;75.40;36.45;;;;;;;1.35;51.98;93917.63;1299026;108;21188;-59
2022/12/14 12:51:33;;;;;;;70.72;39.27;;;;;;;1.57;51.36;93922.16;1313533;106;21842;-63
2022/12/14 12:54:05;;;;;;;53.17;27.45;;;;;;;1.74;51.10;93916.48;1280171;110;21380;-61
2022/12/14 12:56:50;;;;;;;34.03;20.82;;;;;;;2.02;50.83;93906.52;1296925;108;21771;-64
2022/12/14 12:59:27;;;;;;;30.68;18.27;;;;;;;2.81;50.05;93916.31;1300831;108;22106;-55
2022/12/14 13:01:58;;;;;;;28.12;19.75;;;;;;;3.70;48.56;93906.03;1258560;111;21262;-60
2022/12/14 13:04:35;;;;;;;29.05;18.55;;;;;;;4.41;47.11;93909.92;1238759;112;21270;-59
2022/12/14 13:07:16;;;;;;;36.45;17.77;;;;;;;4.62;45.13;93897.12;1274596;111;21191;-62
2022/12/14 13:09:48;;;;;;;42.95;22.05;;;;;;;4.29;44.83;93901.12;1273420;111;21230;-58
2022/12/14 13:12:38;;;;;;;51.53;28.32;;;;;;;4.01;45.02;93908.61;1277127;110;22376;-59
2022/12/14 13:15:22;;;;;;;52.03;25.37;;;;;;;3.81;45.25;93905.20;1242966;113;21369;-57
2022/12/14 13:18:12;;;;;;;48.25;25.48;;;;;;;3.62;45.56;93903.31;1222445;114;21349;-57
2022/12/14 13:20:45;;;;;;;51.55;28.38;;;;;;;3.40;45.83;93904.20;1218436;115;21352;-60
2022/12/14 13:23:21;;;;;;;59.95;32.58;;;;;;;3.10;45.96;93903.70;1219664;115;21310;-59
2022/12/14 13:29:20;;;;;;;70.35;35.43;;;;;;;2.60;47.29;93912.07;1219512;112;21485;-58
2022/12/14 13:32:07;;;;;;;73.35;34.55;;;;;;;2.37;47.56;93909.41;1283302;107;21231;-60
2022/12/14 13:34:58;;;;;;;53.15;30.60;;;;;;;2.22;48.27;93905.98;1273649;110;21311;-57
2022/12/14 13:37:32;;;;;;;70.12;35.60;;;;;;;2.19;48.34;93907.59;1273867;110;21237;-59
2022/12/14 13:40:48;;;;;;;75.85;40.85;;;;;;;2.16;48.47;93901.62;1296730;109;22346;-63
2022/12/14 13:43:44;;;;;;;73.20;39.10;;;;;;;2.07;48.32;93893.84;1285650;109;21375;-55
2022/12/14 13:46:24;;;;;;;62.60;34.65;;;;;;;1.79;48.89;93891.61;1286537;109;21815;-53
2022/12/14 13:48:54;;;;;;;74.67;33.42;;;;;;;1.62;49.21;93885.89;1272997;109;21707;-56
2022/12/14 13:51:35;;;;;;;67.47;34.88;;;;;;;1.54;49.56;93886.41;1233210;114;21213;-57
2022/12/14 13:54:06;;;;;;;55.25;27.52;;;;;;;1.38;49.65;93887.03;1206321;117;21714;-58
2022/12/14 13:56:41;;;;;;;70.35;31.30;;;;;;;1.21;50.20;93883.99;1208861;116;22031;-54
2022/12/14 13:59:46;;;;;;;66.40;32.25;;;;;;;1.09;50.64;93885.89;1216840;115;21272;-56
2022/12/14 14:02:33;;;;;;;99.67;47.67;;;;;;;1.11;51.27;93881.44;1267620;110;21969;-52
2022/12/14 14:05:25;;;;;;;116.40;59.88;;;;;;;1.22;51.11;93880.68;1256161;111;21302;-62
2022/12/14 14:08:01;;;;;;;98.87;49.35;;;;;;;1.29;51.18;93886.02;1265253;111;21218;-60
2022/12/14 14:10:33;;;;;;;73.37;36.93;;;;;;;1.21;51.11;93880.50;1305504;107;21453;-58
2022/12/14 14:13:29;;;;;;;78.07;42.25;;;;;;;1.10;51.37;93871.17;1270546;110;21234;-55
2022/12/14 14:15:58;;;;;;;128.90;71.92;;;;;;;1.04;51.62;93868.75;1277147;109;21742;-56
2022/12/14 14:18:30;;;;;;;104.90;59.90;;;;;;;1.06;52.13;93873.17;1263915;111;21335;-56
2022/12/14 14:21:30;;;;;;;113.80;56.98;;;;;;;1.11;52.37;93865.94;1265893;111;21204;-56
2022/12/14 14:24:01;;;;;;;98.45;54.70;;;;;;;1.13;52.64;93868.25;1265127;111;21308;-58
2022/12/14 14:26:34;;;;;;;122.35;60.33;;;;;;;1.13;52.95;93867.64;1268951;111;21341;-53
2022/12/14 14:29:27;;;;;;;115.85;63.13;;;;;;;1.10;52.86;93867.72;1267277;111;21304;-53
2022/12/14 14:32:04;;;;;;;151.82;74.70;;;;;;;1.08;53.02;93861.34;1336615;104;21701;-54
2022/12/14 14:34:40;;;;;;;153.78;81.65;;;;;;;1.14;52.89;93864.36;1370176;103;22477;-53
2022/12/14 14:37:24;;;;;;;120.28;62.33;;;;;;;1.20;52.68;93855.38;1369463;102;21964;-57
2022/12/14 14:39:56;;;;;;;112.65;49.27;;;;;;;1.25;52.60;93856.27;1370535;102;21246;-54
2022/12/14 14:42:26;;;;;;;88.52;46.00;;;;;;;1.18;52.50;93856.34;1366006;102;21201;-53
2022/12/14 14:45:04;;;;;;;98.82;48.98;;;;;;;1.15;52.62;93846.94;1361286;102;21214;-53
2022/12/14 14:47:38;;;;;;;82.72;41.88;;;;;;;1.10;52.45;93853.58;1387165;101;21265;-57
2022/12/14 14:50:19;;;;;;;78.55;39.90;;;;;;;1.03;52.26;93852.33;1399947;98;21479;-52
2022/12/14 14:53:00;;;;;;;106.78;45.10;;;;;;;1.00;52.23;93851.77;1393035;101;21300;-54
2022/12/14 14:55:34;;;;;;;93.00;45.80;;;;;;;0.97;52.22;93844.47;1423551;97;21227;-54
2022/12/14 14:58:11;;;;;;;165.30;59.67;;;;;;;0.96;52.44;93845.64;1408518;98;21963;-59
2022/12/14 15:01:00;;;;;;;125.80;62.55;;;;;;;1.00;52.60;93842.89;1418268;99;21244;-56
2022/12/14 15:04:01;;;;;;;147.57;74.20;;;;;;;1.01;53.21;93830.31;1422876;99;21288;-56
2022/12/14 15:06:39;;;;;;;120.85;66.40;;;;;;;1.04;53.69;93834.91;1419908;99;21288;-59
2022/12/14 15:09:29;;;;;;;144.93;71.72;;;;;;;1.03;53.69;93829.31;1400450;100;21131;-58
2022/12/14 15:12:05;;;;;;;144.22;74.77;;;;;;;1.05;53.85;93827.53;1403598;99;21143;-58
2022/12/14 15:14:38;;;;;;;179.03;87.27;;;;;;;0.99;53.90;93823.16;1376716;102;21659;-54
2022/12/14 15:17:20;;;;;;;203.45;100.42;;;;;;;0.99;54.02;93811.58;1368381;104;21974;-56
2022/12/14 15:19:55;;;;;;;291.35;133.27;;;;;;;1.07;54.25;93823.26;1355835;103;21298;-53
2022/12/14 15:22:42;;;;;;;280.83;127.15;;;;;;;1.13;54.25;93818.15;1333410;105;21287;-50
2022/12/14 15:25:17;;;;;;;265.55;124.25;;;;;;;1.24;54.00;93815.45;1318127;107;21273;-54
2022/12/14 15:27:44;;;;;;;141.70;73.75;;;;;;;1.35;54.02;93807.91;1321547;107;21237;-55
2022/12/14 15:30:25;;;;;;;159.93;79.05;;;;;;;1.37;53.37;93811.58;1319092;106;21438;-50
2022/12/14 15:33:02;;;;;;;156.65;82.57;;;;;;;1.25;53.21;93808.86;1318194;107;21756;-53
2022/12/14 15:35:38;;;;;;;190.90;93.22;;;;;;;1.18;53.50;93799.47;1269182;110;21356;-53
2022/12/14 15:38:08;;;;;;;246.77;116.95;;;;;;;1.19;53.49;93790.77;1329333;107;21193;-52
2022/12/14 15:40:57;;;;;;;197.72;100.60;;;;;;;1.26;53.55;93793.36;1317638;108;21206;-56
2022/12/14 15:43:26;;;;;;;169.95;87.75;;;;;;;1.31;53.74;93789.60;1331389;106;22542;-54
2022/12/14 15:45:59;;;;;;;161.62;81.65;;;;;;;1.31;53.89;93784.19;1354374;103;21163;-55
2022/12/14 15:48:33;;;;;;;164.95;86.25;;;;;;;1.34;54.10;93787.42;1390334;100;21298;-57
2022/12/14 15:51:03;;;;;;;218.55;108.27;;;;;;;1.29;54.25;93782.48;1377350;102;21344;-55
2022/12/14 15:53:37;;;;;;;190.35;87.17;;;;;;;1.30;54.16;93780.55;1366038;103;21293;-55
2022/12/14 15:56:40;;;;;;;254.95;97.92;;;;;;;1.30;53.81;93774.53;1321071;105;21186;-56
2022/12/14 15:59:31;;;;;;;195.57;95.40;;;;;;;1.18;53.82;93778.41;1348144;104;21242;-55
2022/12/14 16:02:14;;;;;;;304.70;130.17;;;;;;;1.10;54.03;93775.05;1337369;104;21278;-56
2022/12/14 16:04:41;;;;;;;205.30;103.62;;;;;;;1.08;54.20;93773.34;1373311;102;21189;-53
2022/12/14 16:07:37;;;;;;;279.95;127.97;;;;;;;1.05;54.47;93762.55;1407446;101;21155;-54
2022/12/14 16:10:19;;;;;;;169.35;83.40;;;;;;;1.09;54.64;93762.68;1367661;103;21667;-54
2022/12/14 16:12:52;;;;;;;144.25;75.78;;;;;;;1.23;54.71;93761.11;1404136;99;21188;-52
2022/12/14 16:15:23;;;;;;;153.10;80.93;;;;;;;1.24;54.86;93753.73;1392672;100;21232;-55
2022/12/14 16:17:54;;;;;;;150.85;84.80;;;;;;;1.18;55.12;93752.08;1431922;98;21987;-58
2022/12/14 16:20:28;;;;;;;156.30;84.77;;;;;;;1.13;55.47;93751.20;1402084;101;21115;-57
2022/12/14 16:23:04;;;;;;;172.62;95.53;;;;;;;1.05;55.81;93749.02;1412797;101;21348;-54